Hobbema, Canada
Current Conditions -  °F | °C
As of 11:08 PM on Wednesday 28 Jan 2015 (Local Time) from CYEG Reporting Station
Haze Haze  
Wind Chill: 15°   Ceiling: 200
Heat Index: 21°   Visibility: 0.75mi
Dew Point: 19°   Wind: 5mph
Humidity: 93%   Direction: 150°SSE
Pressure: 30.36"   Gusts: NA
Location:  52.83°N, 113.45°W
Report Text: CYEG 290608Z 15004KT 3/4SM R02/P6000FT/D R30/6000FT/D BR VV002 M06/M07 A3036 RMK FG8 SLP325
Loading
Personal Weather Stations






























Interactive Weather Map New forecast layout! Learn more

10-Day Weather Forecast

Advertisements
Track Severe Weather on mobile